sensor_id;sensor_type;location;lat;lon;timestamp;pressure;altitude;pressure_sealevel;temperature;humidity
29505;BME280;16452;54.174;12.092;2022-12-18T00:01:35;102912.34;;;-3.77;100.00
29505;BME280;16452;54.174;12.092;2022-12-18T00:04:07;102909.50;;;-4.24;100.00
29505;BME280;16452;54.174;12.092;2022-12-18T00:06:35;102918.84;;;-4.04;100.00
29505;BME280;16452;54.174;12.092;2022-12-18T00:09:02;102912.53;;;-3.93;100.00
29505;BME280;16452;54.174;12.092;2022-12-18T00:11:30;102914.91;;;-3.97;100.00
29505;BME280;16452;54.174;12.092;2022-12-18T00:13:58;102919.94;;;-3.57;100.00
29505;BME280;16452;54.174;12.092;2022-12-18T00:16:27;102921.91;;;-3.71;100.00
29505;BME280;16452;54.174;12.092;2022-12-18T00:18:55;102920.63;;;-4.01;100.00
29505;BME280;16452;54.174;12.092;2022-12-18T00:21:22;102921.13;;;-3.91;100.00
29505;BME280;16452;54.174;12.092;2022-12-18T00:23:49;102924.84;;;-3.62;100.00
29505;BME280;16452;54.174;12.092;2022-12-18T00:26:24;102924.53;;;-3.90;100.00
29505;BME280;16452;54.174;12.092;2022-12-18T00:28:51;102925.50;;;-3.66;100.00
29505;BME280;16452;54.174;12.092;2022-12-18T00:31:22;102926.22;;;-3.91;100.00
29505;BME280;16452;54.174;12.092;2022-12-18T00:33:48;102927.19;;;-4.08;100.00
29505;BME280;16452;54.174;12.092;2022-12-18T00:36:18;102933.03;;;-3.48;100.00
29505;BME280;16452;54.174;12.092;2022-12-18T00:38:45;102923.19;;;-3.61;100.00
29505;BME280;16452;54.174;12.092;2022-12-18T00:41:13;102927.78;;;-3.74;100.00
29505;BME280;16452;54.174;12.092;2022-12-18T00:43:59;102935.53;;;-3.50;100.00
29505;BME280;16452;54.174;12.092;2022-12-18T00:46:25;102931.03;;;-3.35;100.00
29505;BME280;16452;54.174;12.092;2022-12-18T00:48:51;102918.69;;;-3.88;100.00
29505;BME280;16452;54.174;12.092;2022-12-18T00:51:17;102923.22;;;-3.81;100.00
29505;BME280;16452;54.174;12.092;2022-12-18T00:53:42;102919.75;;;-3.62;100.00
29505;BME280;16452;54.174;12.092;2022-12-18T00:56:08;102918.78;;;-3.43;100.00
29505;BME280;16452;54.174;12.092;2022-12-18T00:58:34;102923.50;;;-3.32;100.00
29505;BME280;16452;54.174;12.092;2022-12-18T01:00:59;102917.25;;;-3.60;100.00
29505;BME280;16452;54.174;12.092;2022-12-18T01:03:25;102944.41;;;-3.40;100.00
29505;BME280;16452;54.174;12.092;2022-12-18T01:05:51;102944.13;;;-3.25;100.00
29505;BME280;16452;54.174;12.092;2022-12-18T01:08:16;102947.53;;;-3.68;100.00
29505;BME280;16452;54.174;12.092;2022-12-18T01:10:42;102953.44;;;-3.26;100.00
29505;BME280;16452;54.174;12.092;2022-12-18T01:13:08;102964.66;;;-3.22;100.00
29505;BME280;16452;54.174;12.092;2022-12-18T01:15:34;102960.78;;;-3.13;100.00
29505;BME280;16452;54.174;12.092;2022-12-18T01:18:00;102970.56;;;-3.23;100.00
29505;BME280;16452;54.174;12.092;2022-12-18T01:20:25;102964.16;;;-3.35;100.00
29505;BME280;16452;54.174;12.092;2022-12-18T01:22:54;102962.81;;;-3.26;100.00
29505;BME280;16452;54.174;12.092;2022-12-18T01:25:20;102969.56;;;-3.48;100.00
29505;BME280;16452;54.174;12.092;2022-12-18T01:27:45;102973.34;;;-3.99;100.00
29505;BME280;16452;54.174;12.092;2022-12-18T01:30:11;102978.25;;;-3.63;100.00
29505;BME280;16452;54.174;12.092;2022-12-18T01:32:37;102975.41;;;-3.29;100.00
29505;BME280;16452;54.174;12.092;2022-12-18T01:35:03;102978.63;;;-3.54;100.00
29505;BME280;16452;54.174;12.092;2022-12-18T01:37:29;102972.28;;;-3.43;100.00
29505;BME280;16452;54.174;12.092;2022-12-18T01:39:55;102963.91;;;-3.61;100.00
29505;BME280;16452;54.174;12.092;2022-12-18T01:42:21;102962.72;;;-3.69;100.00
29505;BME280;16452;54.174;12.092;2022-12-18T01:53:16;102980.44;;;-3.52;100.00
29505;BME280;16452;54.174;12.092;2022-12-18T01:55:53;102973.34;;;-3.80;100.00
29505;BME280;16452;54.174;12.092;2022-12-18T01:58:23;102970.09;;;-3.96;100.00
29505;BME280;16452;54.174;12.092;2022-12-18T02:00:50;102975.66;;;-3.84;100.00
29505;BME280;16452;54.174;12.092;2022-12-18T02:03:15;102970.66;;;-3.83;100.00
29505;BME280;16452;54.174;12.092;2022-12-18T02:05:54;102976.50;;;-3.64;100.00
29505;BME280;16452;54.174;12.092;2022-12-18T02:08:37;102972.56;;;-3.98;100.00
29505;BME280;16452;54.174;12.092;2022-12-18T02:11:31;102972.41;;;-3.61;100.00
29505;BME280;16452;54.174;12.092;2022-12-18T02:14:10;102957.00;;;-3.64;100.00
29505;BME280;16452;54.174;12.092;2022-12-18T02:16:50;102949.56;;;-3.99;100.00
29505;BME280;16452;54.174;12.092;2022-12-18T02:22:37;102937.41;;;-4.06;100.00
29505;BME280;16452;54.174;12.092;2022-12-18T02:28:11;102932.38;;;-4.24;100.00
29505;BME280;16452;54.174;12.092;2022-12-18T02:30:39;102940.69;;;-4.09;100.00
29505;BME280;16452;54.174;12.092;2022-12-18T02:33:08;102940.44;;;-4.15;100.00
29505;BME280;16452;54.174;12.092;2022-12-18T02:35:36;102951.19;;;-4.01;100.00
29505;BME280;16452;54.174;12.092;2022-12-18T02:38:04;102951.16;;;-3.82;100.00
29505;BME280;16452;54.174;12.092;2022-12-18T02:40:30;102964.25;;;-4.13;100.00
29505;BME280;16452;54.174;12.092;2022-12-18T02:43:10;102965.00;;;-3.76;100.00
29505;BME280;16452;54.174;12.092;2022-12-18T02:45:47;102951.22;;;-3.81;100.00
29505;BME280;16452;54.174;12.092;2022-12-18T02:48:13;102947.84;;;-4.00;100.00
29505;BME280;16452;54.174;12.092;2022-12-18T02:50:48;102944.31;;;-3.83;100.00
29505;BME280;16452;54.174;12.092;2022-12-18T02:53:36;102956.09;;;-3.45;100.00
29505;BME280;16452;54.174;12.092;2022-12-18T02:56:37;102956.13;;;-3.23;100.00
29505;BME280;16452;54.174;12.092;2022-12-18T02:59:21;102968.31;;;-3.37;100.00
29505;BME280;16452;54.174;12.092;2022-12-18T03:02:36;102970.94;;;-3.35;100.00
29505;BME280;16452;54.174;12.092;2022-12-18T03:05:11;102984.13;;;-3.45;100.00
29505;BME280;16452;54.174;12.092;2022-12-18T03:08:06;102984.00;;;-3.27;100.00
29505;BME280;16452;54.174;12.092;2022-12-18T03:10:39;102971.50;;;-3.21;100.00
29505;BME280;16452;54.174;12.092;2022-12-18T03:13:13;102971.44;;;-3.44;100.00
29505;BME280;16452;54.174;12.092;2022-12-18T03:15:51;102986.72;;;-3.23;100.00
29505;BME280;16452;54.174;12.092;2022-12-18T03:18:58;102991.25;;;-3.37;100.00
29505;BME280;16452;54.174;12.092;2022-12-18T03:21:32;102992.47;;;-3.48;100.00
29505;BME280;16452;54.174;12.092;2022-12-18T03:24:00;102988.28;;;-3.66;100.00
29505;BME280;16452;54.174;12.092;2022-12-18T03:26:28;102990.75;;;-3.89;100.00
29505;BME280;16452;54.174;12.092;2022-12-18T03:29:00;102988.53;;;-3.81;100.00
29505;BME280;16452;54.174;12.092;2022-12-18T03:31:29;102990.44;;;-3.96;100.00
29505;BME280;16452;54.174;12.092;2022-12-18T03:34:03;102993.34;;;-3.68;100.00
29505;BME280;16452;54.174;12.092;2022-12-18T03:36:32;103003.31;;;-3.73;100.00
29505;BME280;16452;54.174;12.092;2022-12-18T03:38:58;103004.00;;;-3.96;100.00
29505;BME280;16452;54.174;12.092;2022-12-18T03:41:44;103003.69;;;-4.03;100.00
29505;BME280;16452;54.174;12.092;2022-12-18T03:44:14;103009.53;;;-3.66;100.00
29505;BME280;16452;54.174;12.092;2022-12-18T03:52:51;102998.97;;;-3.75;100.00
29505;BME280;16452;54.174;12.092;2022-12-18T03:55:18;103025.78;;;-3.83;100.00
29505;BME280;16452;54.174;12.092;2022-12-18T03:57:47;103023.03;;;-3.48;100.00
29505;BME280;16452;54.174;12.092;2022-12-18T04:00:16;103033.63;;;-3.79;100.00
29505;BME280;16452;54.174;12.092;2022-12-18T04:02:50;103028.19;;;-3.67;100.00
29505;BME280;16452;54.174;12.092;2022-12-18T04:05:18;103040.75;;;-3.51;100.00
29505;BME280;16452;54.174;12.092;2022-12-18T04:07:47;103033.66;;;-3.58;100.00
29505;BME280;16452;54.174;12.092;2022-12-18T04:10:16;103041.31;;;-3.37;100.00
29505;BME280;16452;54.174;12.092;2022-12-18T04:12:42;103041.75;;;-3.47;100.00
29505;BME280;16452;54.174;12.092;2022-12-18T04:15:09;103042.81;;;-3.42;100.00
29505;BME280;16452;54.174;12.092;2022-12-18T04:17:35;103038.06;;;-3.54;100.00
29505;BME280;16452;54.174;12.092;2022-12-18T04:20:01;103030.69;;;-3.48;100.00
29505;BME280;16452;54.174;12.092;2022-12-18T04:22:27;103033.38;;;-3.85;100.00
29505;BME280;16452;54.174;12.092;2022-12-18T04:24:53;103038.22;;;-3.30;100.00
29505;BME280;16452;54.174;12.092;2022-12-18T04:27:18;103049.47;;;-3.25;100.00
29505;BME280;16452;54.174;12.092;2022-12-18T04:29:44;103038.25;;;-3.49;100.00
29505;BME280;16452;54.174;12.092;2022-12-18T04:32:10;103044.81;;;-3.14;100.00
29505;BME280;16452;54.174;12.092;2022-12-18T04:34:36;103036.44;;;-3.12;100.00
29505;BME280;16452;54.174;12.092;2022-12-18T04:37:02;103035.72;;;-3.08;100.00
29505;BME280;16452;54.174;12.092;2022-12-18T04:39:27;103016.97;;;-3.10;100.00
29505;BME280;16452;54.174;12.092;2022-12-18T04:41:53;103015.56;;;-3.03;100.00
29505;BME280;16452;54.174;12.092;2022-12-18T04:44:19;103015.47;;;-3.25;100.00
29505;BME280;16452;54.174;12.092;2022-12-18T04:46:44;103010.69;;;-3.18;100.00
29505;BME280;16452;54.174;12.092;2022-12-18T04:49:10;103020.81;;;-3.19;100.00
29505;BME280;16452;54.174;12.092;2022-12-18T04:51:37;103017.47;;;-3.18;99.92
29505;BME280;16452;54.174;12.092;2022-12-18T04:54:03;103009.25;;;-3.11;99.32
29505;BME280;16452;54.174;12.092;2022-12-18T04:56:31;103017.41;;;-3.41;99.90
29505;BME280;16452;54.174;12.092;2022-12-18T04:58:57;103020.22;;;-3.35;100.00
29505;BME280;16452;54.174;12.092;2022-12-18T05:01:23;103023.38;;;-3.40;100.00
29505;BME280;16452;54.174;12.092;2022-12-18T05:03:48;103032.81;;;-3.78;100.00
29505;BME280;16452;54.174;12.092;2022-12-18T05:06:14;103049.97;;;-3.74;100.00
29505;BME280;16452;54.174;12.092;2022-12-18T05:08:40;103044.63;;;-3.40;100.00
29505;BME280;16452;54.174;12.092;2022-12-18T05:11:09;103052.63;;;-3.90;100.00
29505;BME280;16452;54.174;12.092;2022-12-18T05:13:36;103045.34;;;-3.42;100.00
29505;BME280;16452;54.174;12.092;2022-12-18T05:16:02;103045.16;;;-3.87;100.00
29505;BME280;16452;54.174;12.092;2022-12-18T05:18:28;103052.56;;;-3.53;100.00
29505;BME280;16452;54.174;12.092;2022-12-18T05:20:54;103055.63;;;-3.41;100.00
29505;BME280;16452;54.174;12.092;2022-12-18T05:23:21;103062.47;;;-3.59;100.00
29505;BME280;16452;54.174;12.092;2022-12-18T05:25:58;103043.50;;;-3.65;100.00
29505;BME280;16452;54.174;12.092;2022-12-18T05:28:29;103038.75;;;-3.58;100.00
29505;BME280;16452;54.174;12.092;2022-12-18T05:30:58;103043.00;;;-3.38;100.00
29505;BME280;16452;54.174;12.092;2022-12-18T05:33:28;103045.44;;;-3.41;100.00
29505;BME280;16452;54.174;12.092;2022-12-18T05:35:57;103061.13;;;-3.51;100.00
29505;BME280;16452;54.174;12.092;2022-12-18T05:38:25;103068.59;;;-3.75;100.00
29505;BME280;16452;54.174;12.092;2022-12-18T05:40:52;103062.78;;;-3.91;100.00
29505;BME280;16452;54.174;12.092;2022-12-18T05:43:19;103066.88;;;-3.55;100.00
29505;BME280;16452;54.174;12.092;2022-12-18T05:45:47;103068.06;;;-3.67;100.00
29505;BME280;16452;54.174;12.092;2022-12-18T05:48:13;103060.19;;;-3.53;100.00
29505;BME280;16452;54.174;12.092;2022-12-18T05:50:41;103055.59;;;-3.61;100.00
29505;BME280;16452;54.174;12.092;2022-12-18T05:53:08;103055.78;;;-3.95;100.00
29505;BME280;16452;54.174;12.092;2022-12-18T05:55:35;103059.84;;;-4.18;100.00
29505;BME280;16452;54.174;12.092;2022-12-18T05:58:02;103060.34;;;-3.88;100.00
29505;BME280;16452;54.174;12.092;2022-12-18T06:00:28;103062.03;;;-3.69;100.00
29505;BME280;16452;54.174;12.092;2022-12-18T06:02:54;103067.25;;;-3.86;100.00
29505;BME280;16452;54.174;12.092;2022-12-18T06:05:20;103068.72;;;-3.91;100.00
29505;BME280;16452;54.174;12.092;2022-12-18T06:07:46;103070.88;;;-3.61;100.00
29505;BME280;16452;54.174;12.092;2022-12-18T06:10:11;103064.91;;;-4.20;100.00
29505;BME280;16452;54.174;12.092;2022-12-18T06:12:37;103078.63;;;-3.78;100.00
29505;BME280;16452;54.174;12.092;2022-12-18T06:15:04;103063.22;;;-3.81;100.00
29505;BME280;16452;54.174;12.092;2022-12-18T06:17:31;103061.69;;;-3.77;100.00
29505;BME280;16452;54.174;12.092;2022-12-18T06:19:58;103066.13;;;-3.73;100.00
29505;BME280;16452;54.174;12.092;2022-12-18T06:22:24;103067.31;;;-3.65;100.00
29505;BME280;16452;54.174;12.092;2022-12-18T06:24:50;103078.47;;;-4.19;100.00
29505;BME280;16452;54.174;12.092;2022-12-18T06:27:16;103071.59;;;-4.39;100.00
29505;BME280;16452;54.174;12.092;2022-12-18T06:29:45;103078.81;;;-4.11;100.00
29505;BME280;16452;54.174;12.092;2022-12-18T06:32:11;103091.19;;;-4.19;100.00
29505;BME280;16452;54.174;12.092;2022-12-18T06:34:37;103088.63;;;-4.38;100.00
29505;BME280;16452;54.174;12.092;2022-12-18T06:37:03;103096.13;;;-4.22;100.00
29505;BME280;16452;54.174;12.092;2022-12-18T06:39:29;103091.44;;;-4.32;100.00
29505;BME280;16452;54.174;12.092;2022-12-18T06:41:55;103093.09;;;-4.15;100.00
29505;BME280;16452;54.174;12.092;2022-12-18T06:44:21;103090.53;;;-4.15;100.00
29505;BME280;16452;54.174;12.092;2022-12-18T06:46:47;103088.50;;;-4.22;100.00
29505;BME280;16452;54.174;12.092;2022-12-18T06:49:13;103091.78;;;-4.42;100.00
29505;BME280;16452;54.174;12.092;2022-12-18T06:51:39;103092.00;;;-4.20;100.00
29505;BME280;16452;54.174;12.092;2022-12-18T06:54:04;103083.66;;;-4.35;100.00
29505;BME280;16452;54.174;12.092;2022-12-18T06:56:30;103078.44;;;-4.38;100.00
29505;BME280;16452;54.174;12.092;2022-12-18T06:58:56;103080.41;;;-4.33;100.00
29505;BME280;16452;54.174;12.092;2022-12-18T07:01:22;103083.66;;;-4.35;100.00
29505;BME280;16452;54.174;12.092;2022-12-18T07:03:53;103079.03;;;-4.44;100.00
29505;BME280;16452;54.174;12.092;2022-12-18T07:06:22;103078.00;;;-4.65;100.00
29505;BME280;16452;54.174;12.092;2022-12-18T07:08:48;103081.84;;;-4.20;100.00
29505;BME280;16452;54.174;12.092;2022-12-18T07:11:15;103081.91;;;-4.36;100.00
29505;BME280;16452;54.174;12.092;2022-12-18T07:13:41;103085.91;;;-4.41;100.00
29505;BME280;16452;54.174;12.092;2022-12-18T07:16:10;103093.59;;;-4.22;100.00
29505;BME280;16452;54.174;12.092;2022-12-18T07:18:37;103101.19;;;-4.04;100.00
29505;BME280;16452;54.174;12.092;2022-12-18T07:21:13;103102.47;;;-3.95;100.00
29505;BME280;16452;54.174;12.092;2022-12-18T07:23:39;103102.75;;;-4.08;100.00
29505;BME280;16452;54.174;12.092;2022-12-18T07:26:11;103116.78;;;-4.16;100.00
29505;BME280;16452;54.174;12.092;2022-12-18T07:28:39;103118.66;;;-4.30;100.00
29505;BME280;16452;54.174;12.092;2022-12-18T07:31:07;103109.44;;;-4.28;100.00
29505;BME280;16452;54.174;12.092;2022-12-18T07:33:34;103110.41;;;-4.26;100.00
29505;BME280;16452;54.174;12.092;2022-12-18T07:36:01;103109.56;;;-4.25;100.00
29505;BME280;16452;54.174;12.092;2022-12-18T07:38:28;103124.22;;;-4.38;100.00
29505;BME280;16452;54.174;12.092;2022-12-18T07:40:54;103123.84;;;-4.28;100.00
29505;BME280;16452;54.174;12.092;2022-12-18T07:43:19;103116.91;;;-4.13;100.00
29505;BME280;16452;54.174;12.092;2022-12-18T07:45:45;103122.72;;;-3.98;99.00
29505;BME280;16452;54.174;12.092;2022-12-18T07:48:14;103122.81;;;-4.14;99.14
29505;BME280;16452;54.174;12.092;2022-12-18T07:50:40;103124.13;;;-4.40;99.23
29505;BME280;16452;54.174;12.092;2022-12-18T07:53:05;103131.94;;;-4.37;99.67
29505;BME280;16452;54.174;12.092;2022-12-18T07:55:32;103141.22;;;-4.20;99.31
29505;BME280;16452;54.174;12.092;2022-12-18T07:58:01;103140.25;;;-4.75;100.00
29505;BME280;16452;54.174;12.092;2022-12-18T08:00:27;103147.63;;;-4.45;100.00
29505;BME280;16452;54.174;12.092;2022-12-18T08:02:53;103142.22;;;-4.51;99.91
29505;BME280;16452;54.174;12.092;2022-12-18T08:05:19;103133.31;;;-4.06;99.07
29505;BME280;16452;54.174;12.092;2022-12-18T08:07:46;103138.72;;;-4.18;98.85
29505;BME280;16452;54.174;12.092;2022-12-18T08:10:13;103135.84;;;-4.26;99.00
29505;BME280;16452;54.174;12.092;2022-12-18T08:12:39;103142.31;;;-3.95;99.38
29505;BME280;16452;54.174;12.092;2022-12-18T08:15:06;103142.16;;;-3.61;97.92
29505;BME280;16452;54.174;12.092;2022-12-18T08:17:31;103137.59;;;-3.49;96.63
29505;BME280;16452;54.174;12.092;2022-12-18T08:19:57;103143.66;;;-3.84;96.23
29505;BME280;16452;54.174;12.092;2022-12-18T08:22:27;103148.53;;;-3.52;95.90
29505;BME280;16452;54.174;12.092;2022-12-18T08:24:53;103156.16;;;-3.52;94.91
29505;BME280;16452;54.174;12.092;2022-12-18T08:27:18;103152.50;;;-3.39;94.27
29505;BME280;16452;54.174;12.092;2022-12-18T08:29:44;103152.63;;;-3.55;93.79
29505;BME280;16452;54.174;12.092;2022-12-18T08:32:10;103151.41;;;-3.63;94.67
29505;BME280;16452;54.174;12.092;2022-12-18T08:34:36;103148.72;;;-3.47;94.80
29505;BME280;16452;54.174;12.092;2022-12-18T08:37:01;103151.19;;;-3.29;94.29
29505;BME280;16452;54.174;12.092;2022-12-18T08:39:27;103157.75;;;-3.54;95.28
29505;BME280;16452;54.174;12.092;2022-12-18T08:41:53;103165.16;;;-3.21;94.76
29505;BME280;16452;54.174;12.092;2022-12-18T08:44:37;103163.06;;;-3.49;94.57
29505;BME280;16452;54.174;12.092;2022-12-18T08:47:03;103168.09;;;-3.32;93.85
29505;BME280;16452;54.174;12.092;2022-12-18T08:49:29;103160.97;;;-3.19;94.03
29505;BME280;16452;54.174;12.092;2022-12-18T08:51:56;103167.63;;;-3.23;93.34
29505;BME280;16452;54.174;12.092;2022-12-18T08:54:23;103165.25;;;-3.18;93.86
29505;BME280;16452;54.174;12.092;2022-12-18T08:56:49;103159.63;;;-3.31;93.23
29505;BME280;16452;54.174;12.092;2022-12-18T08:59:16;103174.19;;;-3.28;93.74
29505;BME280;16452;54.174;12.092;2022-12-18T09:01:42;103176.22;;;-3.21;94.03
29505;BME280;16452;54.174;12.092;2022-12-18T09:04:09;103177.34;;;-2.74;93.08
29505;BME280;16452;54.174;12.092;2022-12-18T09:06:35;103174.16;;;-2.69;92.64
29505;BME280;16452;54.174;12.092;2022-12-18T09:09:03;103174.81;;;-2.94;92.64
29505;BME280;16452;54.174;12.092;2022-12-18T09:11:29;103169.38;;;-3.22;93.94
29505;BME280;16452;54.174;12.092;2022-12-18T09:13:55;103173.97;;;-3.13;93.82
29505;BME280;16452;54.174;12.092;2022-12-18T09:16:23;103183.59;;;-2.87;94.90
29505;BME280;16452;54.174;12.092;2022-12-18T09:18:49;103182.75;;;-3.07;94.09
29505;BME280;16452;54.174;12.092;2022-12-18T09:21:18;103173.66;;;-2.60;93.28
29505;BME280;16452;54.174;12.092;2022-12-18T09:23:53;103175.84;;;-2.28;91.96
29505;BME280;16452;54.174;12.092;2022-12-18T09:26:21;103169.63;;;-2.12;90.80
29505;BME280;16452;54.174;12.092;2022-12-18T09:28:46;103175.38;;;-2.18;89.85
29505;BME280;16452;54.174;12.092;2022-12-18T09:31:17;103170.56;;;-2.10;90.23
29505;BME280;16452;54.174;12.092;2022-12-18T09:33:46;103168.91;;;-2.30;91.41
29505;BME280;16452;54.174;12.092;2022-12-18T09:36:15;103165.25;;;-2.15;91.68
29505;BME280;16452;54.174;12.092;2022-12-18T09:38:42;103164.22;;;-2.20;91.56
29505;BME280;16452;54.174;12.092;2022-12-18T09:41:39;103169.78;;;-1.85;91.07
29505;BME280;16452;54.174;12.092;2022-12-18T09:44:52;103161.34;;;-1.60;90.18
29505;BME280;16452;54.174;12.092;2022-12-18T09:47:38;103153.69;;;-1.60;90.16
29505;BME280;16452;54.174;12.092;2022-12-18T09:52:56;103162.06;;;-1.64;90.30
29505;BME280;16452;54.174;12.092;2022-12-18T09:55:30;103156.69;;;-1.94;91.53
29505;BME280;16452;54.174;12.092;2022-12-18T09:58:19;103155.72;;;-1.74;90.66
29505;BME280;16452;54.174;12.092;2022-12-18T10:00:46;103154.19;;;-1.71;89.85
29505;BME280;16452;54.174;12.092;2022-12-18T10:03:14;103150.75;;;-1.71;89.73
29505;BME280;16452;54.174;12.092;2022-12-18T10:06:08;103144.63;;;-1.52;88.92
29505;BME280;16452;54.174;12.092;2022-12-18T10:08:46;103152.94;;;-2.04;89.72
29505;BME280;16452;54.174;12.092;2022-12-18T10:20:29;103151.28;;;-1.80;92.29
29505;BME280;16452;54.174;12.092;2022-12-18T10:23:27;103147.69;;;-2.07;92.22
29505;BME280;16452;54.174;12.092;2022-12-18T10:26:06;103142.00;;;-2.22;92.74
29505;BME280;16452;54.174;12.092;2022-12-18T10:28:37;103145.78;;;-1.90;92.26
29505;BME280;16452;54.174;12.092;2022-12-18T10:31:16;103143.13;;;-2.16;92.19
29505;BME280;16452;54.174;12.092;2022-12-18T10:33:43;103152.94;;;-1.80;91.29
29505;BME280;16452;54.174;12.092;2022-12-18T10:36:09;103150.31;;;-1.83;90.79
29505;BME280;16452;54.174;12.092;2022-12-18T10:38:35;103152.22;;;-2.00;91.27
29505;BME280;16452;54.174;12.092;2022-12-18T10:41:08;103151.53;;;-1.96;92.28
29505;BME280;16452;54.174;12.092;2022-12-18T10:44:23;103142.00;;;-1.78;90.83
29505;BME280;16452;54.174;12.092;2022-12-18T10:46:55;103142.53;;;-1.62;89.55
29505;BME280;16452;54.174;12.092;2022-12-18T10:49:32;103145.59;;;-1.95;91.60
29505;BME280;16452;54.174;12.092;2022-12-18T10:52:20;103140.28;;;-1.55;90.87
29505;BME280;16452;54.174;12.092;2022-12-18T10:55:05;103143.63;;;-1.56;91.52
29505;BME280;16452;54.174;12.092;2022-12-18T10:57:38;103140.22;;;-1.33;91.89
29505;BME280;16452;54.174;12.092;2022-12-18T11:00:27;103138.66;;;-1.28;90.49
29505;BME280;16452;54.174;12.092;2022-12-18T11:02:54;103137.06;;;-1.26;90.44
29505;BME280;16452;54.174;12.092;2022-12-18T11:05:33;103136.78;;;-1.33;90.51
29505;BME280;16452;54.174;12.092;2022-12-18T11:08:00;103130.13;;;-1.28;90.65
29505;BME280;16452;54.174;12.092;2022-12-18T11:10:37;103129.03;;;-1.36;89.98
29505;BME280;16452;54.174;12.092;2022-12-18T11:13:18;103128.53;;;-1.50;90.56
29505;BME280;16452;54.174;12.092;2022-12-18T11:15:45;103119.97;;;-1.27;90.80
29505;BME280;16452;54.174;12.092;2022-12-18T11:18:33;103124.56;;;-1.66;92.07
29505;BME280;16452;54.174;12.092;2022-12-18T11:21:14;103128.22;;;-1.35;92.22
29505;BME280;16452;54.174;12.092;2022-12-18T11:23:53;103138.38;;;-1.37;91.94
29505;BME280;16452;54.174;12.092;2022-12-18T11:26:19;103141.78;;;-1.60;93.03
29505;BME280;16452;54.174;12.092;2022-12-18T11:28:51;103136.56;;;-1.63;93.40
29505;BME280;16452;54.174;12.092;2022-12-18T11:31:28;103144.72;;;-1.73;92.22
29505;BME280;16452;54.174;12.092;2022-12-18T11:36:44;103143.91;;;-1.48;92.16
29505;BME280;16452;54.174;12.092;2022-12-18T11:39:35;103157.22;;;-1.33;91.03
29505;BME280;16452;54.174;12.092;2022-12-18T11:42:32;103153.53;;;-1.17;90.78
29505;BME280;16452;54.174;12.092;2022-12-18T11:48:12;103159.06;;;-1.77;92.80
29505;BME280;16452;54.174;12.092;2022-12-18T11:50:58;103151.84;;;-1.64;92.90
29505;BME280;16452;54.174;12.092;2022-12-18T11:53:27;103150.81;;;-1.70;93.41
29505;BME280;16452;54.174;12.092;2022-12-18T11:59:53;103141.38;;;-1.48;93.01
29505;BME280;16452;54.174;12.092;2022-12-18T12:05:26;103156.81;;;-1.69;93.04
29505;BME280;16452;54.174;12.092;2022-12-18T12:16:57;103156.91;;;-1.66;95.42
29505;BME280;16452;54.174;12.092;2022-12-18T12:25:37;103155.38;;;-1.37;95.13
29505;BME280;16452;54.174;12.092;2022-12-18T12:32:30;103140.19;;;-1.34;94.68
29505;BME280;16452;54.174;12.092;2022-12-18T12:34:59;103131.56;;;-1.12;93.33
29505;BME280;16452;54.174;12.092;2022-12-18T12:40:37;103128.31;;;-1.56;95.11
29505;BME280;16452;54.174;12.092;2022-12-18T12:43:44;103126.69;;;-1.30;95.03
29505;BME280;16452;54.174;12.092;2022-12-18T12:46:15;103134.06;;;-1.38;96.13
29505;BME280;16452;54.174;12.092;2022-12-18T12:48:54;103134.94;;;-1.61;97.38
29505;BME280;16452;54.174;12.092;2022-12-18T12:51:23;103142.63;;;-1.83;97.61
29505;BME280;16452;54.174;12.092;2022-12-18T12:53:50;103147.19;;;-1.75;98.28
29505;BME280;16452;54.174;12.092;2022-12-18T12:56:20;103143.84;;;-1.74;97.42
29505;BME280;16452;54.174;12.092;2022-12-18T12:58:55;103144.13;;;-1.66;98.87
29505;BME280;16452;54.174;12.092;2022-12-18T13:01:49;103137.22;;;-1.45;98.01
29505;BME280;16452;54.174;12.092;2022-12-18T13:07:32;103136.00;;;-1.78;100.00
29505;BME280;16452;54.174;12.092;2022-12-18T13:13:07;103126.34;;;-1.63;99.00
29505;BME280;16452;54.174;12.092;2022-12-18T13:15:44;103125.19;;;-1.95;99.62
29505;BME280;16452;54.174;12.092;2022-12-18T13:18:18;103118.47;;;-1.69;100.00
29505;BME280;16452;54.174;12.092;2022-12-18T13:20:50;103125.19;;;-1.95;100.00
29505;BME280;16452;54.174;12.092;2022-12-18T13:23:41;103111.06;;;-1.85;100.00
29505;BME280;16452;54.174;12.092;2022-12-18T13:34:25;103093.97;;;-2.32;100.00
29505;BME280;16452;54.174;12.092;2022-12-18T13:36:55;103086.00;;;-1.95;100.00
29505;BME280;16452;54.174;12.092;2022-12-18T13:39:31;103099.25;;;-2.05;100.00
29505;BME280;16452;54.174;12.092;2022-12-18T13:44:39;103078.56;;;-1.89;100.00
29505;BME280;16452;54.174;12.092;2022-12-18T13:47:43;103070.19;;;-1.85;100.00
29505;BME280;16452;54.174;12.092;2022-12-18T13:50:26;103059.53;;;-1.74;100.00
29505;BME280;16452;54.174;12.092;2022-12-18T13:52:52;103053.97;;;-1.63;100.00
29505;BME280;16452;54.174;12.092;2022-12-18T13:55:20;103054.56;;;-1.94;100.00
29505;BME280;16452;54.174;12.092;2022-12-18T13:57:47;103062.00;;;-2.00;100.00
29505;BME280;16452;54.174;12.092;2022-12-18T14:02:48;103066.16;;;-1.55;100.00
29505;BME280;16452;54.174;12.092;2022-12-18T14:05:31;103074.34;;;-1.89;100.00
29505;BME280;16452;54.174;12.092;2022-12-18T14:08:21;103078.75;;;-2.07;100.00
29505;BME280;16452;54.174;12.092;2022-12-18T14:10:48;103077.38;;;-2.21;100.00
29505;BME280;16452;54.174;12.092;2022-12-18T14:13:41;103076.44;;;-2.01;100.00
29505;BME280;16452;54.174;12.092;2022-12-18T14:16:11;103074.63;;;-1.81;100.00
29505;BME280;16452;54.174;12.092;2022-12-18T14:18:52;103063.75;;;-1.76;100.00
29505;BME280;16452;54.174;12.092;2022-12-18T14:21:26;103053.41;;;-1.55;100.00